sensor_id;sensor_type;location;lat;lon;timestamp;P1;durP1;ratioP1;P2;durP2;ratioP2
26042;SDS011;13818;52.156;5.382;2023-07-24T00:00:42;4.60;;;1.90;;
26042;SDS011;13818;52.156;5.382;2023-07-24T00:03:09;3.53;;;1.95;;
26042;SDS011;13818;52.156;5.382;2023-07-24T00:05:42;4.47;;;1.70;;
26042;SDS011;13818;52.156;5.382;2023-07-24T00:08:14;4.10;;;2.10;;
26042;SDS011;13818;52.156;5.382;2023-07-24T00:10:43;3.42;;;1.85;;
26042;SDS011;13818;52.156;5.382;2023-07-24T00:13:10;6.32;;;2.13;;
26042;SDS011;13818;52.156;5.382;2023-07-24T00:15:38;3.75;;;1.98;;
26042;SDS011;13818;52.156;5.382;2023-07-24T00:18:06;3.17;;;1.90;;
26042;SDS011;13818;52.156;5.382;2023-07-24T00:20:35;3.63;;;1.75;;
26042;SDS011;13818;52.156;5.382;2023-07-24T00:23:02;4.97;;;2.17;;
26042;SDS011;13818;52.156;5.382;2023-07-24T00:25:30;3.05;;;1.70;;
26042;SDS011;13818;52.156;5.382;2023-07-24T00:28:00;3.95;;;1.65;;
26042;SDS011;13818;52.156;5.382;2023-07-24T00:30:30;2.97;;;1.60;;
26042;SDS011;13818;52.156;5.382;2023-07-24T00:33:03;5.93;;;2.03;;
26042;SDS011;13818;52.156;5.382;2023-07-24T00:35:30;4.50;;;2.00;;
26042;SDS011;13818;52.156;5.382;2023-07-24T00:37:57;3.35;;;2.15;;
26042;SDS011;13818;52.156;5.382;2023-07-24T00:40:37;3.25;;;1.92;;
26042;SDS011;13818;52.156;5.382;2023-07-24T00:43:05;4.50;;;1.90;;
26042;SDS011;13818;52.156;5.382;2023-07-24T00:45:32;3.65;;;2.00;;
26042;SDS011;13818;52.156;5.382;2023-07-24T00:48:00;3.08;;;1.60;;
26042;SDS011;13818;52.156;5.382;2023-07-24T00:50:27;3.75;;;1.48;;
26042;SDS011;13818;52.156;5.382;2023-07-24T00:52:58;2.58;;;1.67;;
26042;SDS011;13818;52.156;5.382;2023-07-24T00:55:27;4.10;;;1.80;;
26042;SDS011;13818;52.156;5.382;2023-07-24T00:57:58;3.42;;;1.88;;
26042;SDS011;13818;52.156;5.382;2023-07-24T01:00:26;3.60;;;2.08;;
26042;SDS011;13818;52.156;5.382;2023-07-24T01:02:55;3.30;;;1.70;;
26042;SDS011;13818;52.156;5.382;2023-07-24T01:05:28;3.28;;;2.00;;
26042;SDS011;13818;52.156;5.382;2023-07-24T01:08:02;3.17;;;2.03;;
26042;SDS011;13818;52.156;5.382;2023-07-24T01:10:35;4.20;;;1.88;;
26042;SDS011;13818;52.156;5.382;2023-07-24T01:13:14;2.83;;;1.70;;
26042;SDS011;13818;52.156;5.382;2023-07-24T01:15:45;2.83;;;1.73;;
26042;SDS011;13818;52.156;5.382;2023-07-24T01:18:19;3.72;;;1.73;;
26042;SDS011;13818;52.156;5.382;2023-07-24T01:23:44;2.38;;;1.58;;
26042;SDS011;13818;52.156;5.382;2023-07-24T01:26:20;3.42;;;1.50;;
26042;SDS011;13818;52.156;5.382;2023-07-24T01:28:49;2.80;;;1.40;;
26042;SDS011;13818;52.156;5.382;2023-07-24T01:31:16;3.35;;;1.92;;
26042;SDS011;13818;52.156;5.382;2023-07-24T01:33:43;3.08;;;1.70;;
26042;SDS011;13818;52.156;5.382;2023-07-24T01:36:10;2.35;;;1.63;;
26042;SDS011;13818;52.156;5.382;2023-07-24T01:38:41;3.22;;;2.10;;
26042;SDS011;13818;52.156;5.382;2023-07-24T01:41:19;3.38;;;1.70;;
26042;SDS011;13818;52.156;5.382;2023-07-24T01:43:47;2.83;;;1.52;;
26042;SDS011;13818;52.156;5.382;2023-07-24T01:46:14;3.13;;;1.77;;
26042;SDS011;13818;52.156;5.382;2023-07-24T01:48:49;2.85;;;1.75;;
26042;SDS011;13818;52.156;5.382;2023-07-24T01:53:46;3.00;;;1.63;;
26042;SDS011;13818;52.156;5.382;2023-07-24T01:56:13;3.92;;;1.55;;
26042;SDS011;13818;52.156;5.382;2023-07-24T01:58:43;3.47;;;1.92;;
26042;SDS011;13818;52.156;5.382;2023-07-24T02:01:14;2.63;;;1.40;;
26042;SDS011;13818;52.156;5.382;2023-07-24T02:03:45;4.05;;;1.95;;
26042;SDS011;13818;52.156;5.382;2023-07-24T02:06:12;3.58;;;1.85;;
26042;SDS011;13818;52.156;5.382;2023-07-24T02:08:44;4.97;;;2.05;;
26042;SDS011;13818;52.156;5.382;2023-07-24T02:11:14;3.50;;;1.85;;
26042;SDS011;13818;52.156;5.382;2023-07-24T02:13:44;3.05;;;1.48;;
26042;SDS011;13818;52.156;5.382;2023-07-24T02:16:14;2.80;;;1.48;;
26042;SDS011;13818;52.156;5.382;2023-07-24T02:18:43;3.97;;;1.60;;
26042;SDS011;13818;52.156;5.382;2023-07-24T02:21:10;3.25;;;1.92;;
26042;SDS011;13818;52.156;5.382;2023-07-24T02:23:40;3.70;;;2.00;;
26042;SDS011;13818;52.156;5.382;2023-07-24T02:26:07;2.55;;;1.50;;
26042;SDS011;13818;52.156;5.382;2023-07-24T02:31:06;3.85;;;1.85;;
26042;SDS011;13818;52.156;5.382;2023-07-24T02:33:34;2.25;;;1.52;;
26042;SDS011;13818;52.156;5.382;2023-07-24T02:36:02;3.70;;;1.88;;
26042;SDS011;13818;52.156;5.382;2023-07-24T02:38:29;3.80;;;1.80;;
26042;SDS011;13818;52.156;5.382;2023-07-24T02:41:01;3.25;;;1.80;;
26042;SDS011;13818;52.156;5.382;2023-07-24T02:43:28;5.13;;;1.80;;
26042;SDS011;13818;52.156;5.382;2023-07-24T02:45:55;4.07;;;2.15;;
26042;SDS011;13818;52.156;5.382;2023-07-24T02:48:28;4.35;;;2.00;;
26042;SDS011;13818;52.156;5.382;2023-07-24T02:50:55;4.22;;;1.90;;
26042;SDS011;13818;52.156;5.382;2023-07-24T02:53:26;3.50;;;2.17;;
26042;SDS011;13818;52.156;5.382;2023-07-24T02:55:55;5.82;;;2.00;;
26042;SDS011;13818;52.156;5.382;2023-07-24T02:58:31;3.50;;;2.13;;
26042;SDS011;13818;52.156;5.382;2023-07-24T03:01:03;4.20;;;2.10;;
26042;SDS011;13818;52.156;5.382;2023-07-24T03:03:37;5.47;;;2.38;;
26042;SDS011;13818;52.156;5.382;2023-07-24T03:06:05;4.50;;;2.40;;
26042;SDS011;13818;52.156;5.382;2023-07-24T03:08:32;3.33;;;1.90;;
26042;SDS011;13818;52.156;5.382;2023-07-24T03:11:04;4.18;;;1.85;;
26042;SDS011;13818;52.156;5.382;2023-07-24T03:13:34;4.80;;;2.15;;
26042;SDS011;13818;52.156;5.382;2023-07-24T03:16:03;3.97;;;2.10;;
26042;SDS011;13818;52.156;5.382;2023-07-24T03:18:30;3.03;;;2.35;;
26042;SDS011;13818;52.156;5.382;2023-07-24T03:21:01;3.80;;;2.00;;
26042;SDS011;13818;52.156;5.382;2023-07-24T03:23:29;4.22;;;2.15;;
26042;SDS011;13818;52.156;5.382;2023-07-24T03:25:58;5.40;;;2.33;;
26042;SDS011;13818;52.156;5.382;2023-07-24T03:28:25;3.47;;;2.25;;
26042;SDS011;13818;52.156;5.382;2023-07-24T03:30:52;3.53;;;2.17;;
26042;SDS011;13818;52.156;5.382;2023-07-24T03:33:22;4.75;;;2.22;;
26042;SDS011;13818;52.156;5.382;2023-07-24T03:35:51;3.17;;;2.15;;
26042;SDS011;13818;52.156;5.382;2023-07-24T03:38:22;3.90;;;2.50;;
26042;SDS011;13818;52.156;5.382;2023-07-24T03:40:49;3.25;;;1.95;;
26042;SDS011;13818;52.156;5.382;2023-07-24T03:43:21;4.15;;;2.33;;
26042;SDS011;13818;52.156;5.382;2023-07-24T03:45:57;4.95;;;2.33;;
26042;SDS011;13818;52.156;5.382;2023-07-24T03:48:24;4.47;;;2.40;;
26042;SDS011;13818;52.156;5.382;2023-07-24T03:51:02;3.40;;;1.83;;
26042;SDS011;13818;52.156;5.382;2023-07-24T03:53:31;3.92;;;2.50;;
26042;SDS011;13818;52.156;5.382;2023-07-24T03:56:01;6.13;;;2.50;;
26042;SDS011;13818;52.156;5.382;2023-07-24T03:58:28;5.07;;;2.67;;
26042;SDS011;13818;52.156;5.382;2023-07-24T04:01:12;7.30;;;2.67;;
26042;SDS011;13818;52.156;5.382;2023-07-24T04:03:39;5.55;;;2.45;;
26042;SDS011;13818;52.156;5.382;2023-07-24T04:06:06;5.55;;;2.35;;
26042;SDS011;13818;52.156;5.382;2023-07-24T04:08:38;3.88;;;2.33;;
26042;SDS011;13818;52.156;5.382;2023-07-24T04:11:08;3.22;;;2.25;;
26042;SDS011;13818;52.156;5.382;2023-07-24T04:13:38;4.22;;;2.28;;
26042;SDS011;13818;52.156;5.382;2023-07-24T04:16:06;4.75;;;2.53;;
26042;SDS011;13818;52.156;5.382;2023-07-24T04:18:33;4.05;;;2.15;;
26042;SDS011;13818;52.156;5.382;2023-07-24T04:21:04;4.35;;;2.08;;
26042;SDS011;13818;52.156;5.382;2023-07-24T04:23:31;5.10;;;2.15;;
26042;SDS011;13818;52.156;5.382;2023-07-24T04:25:59;5.93;;;2.38;;
26042;SDS011;13818;52.156;5.382;2023-07-24T04:28:28;4.93;;;2.95;;
26042;SDS011;13818;52.156;5.382;2023-07-24T04:30:55;5.00;;;2.15;;
26042;SDS011;13818;52.156;5.382;2023-07-24T04:33:28;6.20;;;2.97;;
26042;SDS011;13818;52.156;5.382;2023-07-24T04:35:55;5.10;;;2.22;;
26042;SDS011;13818;52.156;5.382;2023-07-24T04:38:25;5.72;;;2.55;;
26042;SDS011;13818;52.156;5.382;2023-07-24T04:40:52;7.53;;;2.90;;
26042;SDS011;13818;52.156;5.382;2023-07-24T04:43:21;3.97;;;2.40;;
26042;SDS011;13818;52.156;5.382;2023-07-24T04:45:48;6.38;;;3.00;;
26042;SDS011;13818;52.156;5.382;2023-07-24T04:48:17;6.47;;;2.80;;
26042;SDS011;13818;52.156;5.382;2023-07-24T04:50:44;4.80;;;2.60;;
26042;SDS011;13818;52.156;5.382;2023-07-24T04:53:14;4.97;;;2.42;;
26042;SDS011;13818;52.156;5.382;2023-07-24T04:55:41;5.28;;;2.90;;
26042;SDS011;13818;52.156;5.382;2023-07-24T04:58:10;4.88;;;2.20;;
26042;SDS011;13818;52.156;5.382;2023-07-24T05:00:38;6.35;;;2.38;;
26042;SDS011;13818;52.156;5.382;2023-07-24T05:03:07;4.05;;;2.60;;
26042;SDS011;13818;52.156;5.382;2023-07-24T05:05:36;5.55;;;2.60;;
26042;SDS011;13818;52.156;5.382;2023-07-24T05:08:03;6.50;;;2.78;;
26042;SDS011;13818;52.156;5.382;2023-07-24T05:10:44;7.75;;;2.85;;
26042;SDS011;13818;52.156;5.382;2023-07-24T05:13:12;5.97;;;2.70;;
26042;SDS011;13818;52.156;5.382;2023-07-24T05:15:43;4.90;;;2.72;;
26042;SDS011;13818;52.156;5.382;2023-07-24T05:18:09;5.35;;;2.53;;
26042;SDS011;13818;52.156;5.382;2023-07-24T05:20:42;7.57;;;3.03;;
26042;SDS011;13818;52.156;5.382;2023-07-24T05:23:10;5.68;;;2.40;;
26042;SDS011;13818;52.156;5.382;2023-07-24T05:25:40;5.90;;;2.75;;
26042;SDS011;13818;52.156;5.382;2023-07-24T05:28:08;5.78;;;3.03;;
26042;SDS011;13818;52.156;5.382;2023-07-24T05:30:37;7.00;;;3.10;;
26042;SDS011;13818;52.156;5.382;2023-07-24T05:33:06;5.60;;;2.47;;
26042;SDS011;13818;52.156;5.382;2023-07-24T05:35:33;5.05;;;2.42;;
26042;SDS011;13818;52.156;5.382;2023-07-24T05:38:01;6.90;;;2.90;;
26042;SDS011;13818;52.156;5.382;2023-07-24T05:40:31;5.15;;;2.72;;
26042;SDS011;13818;52.156;5.382;2023-07-24T05:43:03;5.35;;;2.78;;
26042;SDS011;13818;52.156;5.382;2023-07-24T05:45:32;6.32;;;3.15;;
26042;SDS011;13818;52.156;5.382;2023-07-24T05:48:16;7.65;;;3.03;;
26042;SDS011;13818;52.156;5.382;2023-07-24T05:50:47;8.77;;;3.22;;
26042;SDS011;13818;52.156;5.382;2023-07-24T05:53:25;5.45;;;2.80;;
26042;SDS011;13818;52.156;5.382;2023-07-24T05:55:58;4.97;;;2.70;;
26042;SDS011;13818;52.156;5.382;2023-07-24T05:58:40;7.15;;;2.70;;
26042;SDS011;13818;52.156;5.382;2023-07-24T06:01:20;6.05;;;2.65;;
26042;SDS011;13818;52.156;5.382;2023-07-24T06:03:56;5.32;;;2.50;;
26042;SDS011;13818;52.156;5.382;2023-07-24T06:06:33;4.72;;;2.75;;
26042;SDS011;13818;52.156;5.382;2023-07-24T06:09:05;6.93;;;2.90;;
26042;SDS011;13818;52.156;5.382;2023-07-24T06:11:38;5.60;;;2.35;;
26042;SDS011;13818;52.156;5.382;2023-07-24T06:14:13;6.47;;;2.42;;
26042;SDS011;13818;52.156;5.382;2023-07-24T06:16:46;6.45;;;2.53;;
26042;SDS011;13818;52.156;5.382;2023-07-24T06:19:21;5.75;;;2.05;;
26042;SDS011;13818;52.156;5.382;2023-07-24T06:21:51;6.60;;;2.58;;
26042;SDS011;13818;52.156;5.382;2023-07-24T06:24:21;3.45;;;1.65;;
26042;SDS011;13818;52.156;5.382;2023-07-24T06:29:24;4.72;;;2.10;;
26042;SDS011;13818;52.156;5.382;2023-07-24T06:31:51;3.45;;;2.00;;
26042;SDS011;13818;52.156;5.382;2023-07-24T06:34:23;4.43;;;2.28;;
26042;SDS011;13818;52.156;5.382;2023-07-24T06:36:50;4.18;;;2.30;;
26042;SDS011;13818;52.156;5.382;2023-07-24T06:39:17;5.18;;;2.25;;
26042;SDS011;13818;52.156;5.382;2023-07-24T06:41:46;5.35;;;2.42;;
26042;SDS011;13818;52.156;5.382;2023-07-24T06:44:16;4.20;;;2.20;;
26042;SDS011;13818;52.156;5.382;2023-07-24T06:46:47;4.20;;;2.13;;
26042;SDS011;13818;52.156;5.382;2023-07-24T06:51:48;5.60;;;2.33;;
26042;SDS011;13818;52.156;5.382;2023-07-24T06:54:14;4.13;;;2.08;;
26042;SDS011;13818;52.156;5.382;2023-07-24T06:56:44;6.15;;;2.53;;
26042;SDS011;13818;52.156;5.382;2023-07-24T06:59:14;5.55;;;1.95;;
26042;SDS011;13818;52.156;5.382;2023-07-24T07:01:44;6.93;;;2.08;;
26042;SDS011;13818;52.156;5.382;2023-07-24T07:04:11;5.75;;;2.03;;
26042;SDS011;13818;52.156;5.382;2023-07-24T07:06:40;4.47;;;2.38;;
26042;SDS011;13818;52.156;5.382;2023-07-24T07:09:10;4.93;;;2.15;;
26042;SDS011;13818;52.156;5.382;2023-07-24T07:11:40;6.50;;;2.40;;
26042;SDS011;13818;52.156;5.382;2023-07-24T07:14:16;4.22;;;1.88;;
26042;SDS011;13818;52.156;5.382;2023-07-24T07:16:43;5.05;;;2.20;;
26042;SDS011;13818;52.156;5.382;2023-07-24T07:19:13;4.90;;;2.10;;
26042;SDS011;13818;52.156;5.382;2023-07-24T07:21:43;3.58;;;2.22;;
26042;SDS011;13818;52.156;5.382;2023-07-24T07:24:13;5.20;;;1.95;;
26042;SDS011;13818;52.156;5.382;2023-07-24T07:26:40;5.45;;;2.30;;
26042;SDS011;13818;52.156;5.382;2023-07-24T07:29:10;5.93;;;2.35;;
26042;SDS011;13818;52.156;5.382;2023-07-24T07:31:40;3.75;;;1.92;;
26042;SDS011;13818;52.156;5.382;2023-07-24T07:34:07;6.63;;;2.05;;
26042;SDS011;13818;52.156;5.382;2023-07-24T07:36:34;7.20;;;2.33;;
26042;SDS011;13818;52.156;5.382;2023-07-24T07:39:04;5.43;;;2.47;;
26042;SDS011;13818;52.156;5.382;2023-07-24T07:41:33;5.53;;;2.80;;
26042;SDS011;13818;52.156;5.382;2023-07-24T07:44:11;4.50;;;2.55;;
26042;SDS011;13818;52.156;5.382;2023-07-24T07:46:41;4.80;;;2.13;;
26042;SDS011;13818;52.156;5.382;2023-07-24T07:49:08;4.75;;;2.40;;
26042;SDS011;13818;52.156;5.382;2023-07-24T07:51:38;6.25;;;2.65;;
26042;SDS011;13818;52.156;5.382;2023-07-24T07:54:06;5.40;;;2.17;;
26042;SDS011;13818;52.156;5.382;2023-07-24T07:56:37;5.18;;;2.70;;
26042;SDS011;13818;52.156;5.382;2023-07-24T07:59:15;4.50;;;2.30;;
26042;SDS011;13818;52.156;5.382;2023-07-24T08:01:44;6.10;;;3.05;;
26042;SDS011;13818;52.156;5.382;2023-07-24T08:04:12;5.25;;;2.40;;
26042;SDS011;13818;52.156;5.382;2023-07-24T08:06:38;3.25;;;2.08;;
26042;SDS011;13818;52.156;5.382;2023-07-24T08:09:08;4.63;;;2.25;;
26042;SDS011;13818;52.156;5.382;2023-07-24T08:11:36;4.22;;;2.25;;
26042;SDS011;13818;52.156;5.382;2023-07-24T08:14:05;4.90;;;1.92;;
26042;SDS011;13818;52.156;5.382;2023-07-24T08:16:34;5.88;;;2.55;;
26042;SDS011;13818;52.156;5.382;2023-07-24T08:19:03;4.55;;;2.60;;
26042;SDS011;13818;52.156;5.382;2023-07-24T08:21:35;5.07;;;2.50;;
26042;SDS011;13818;52.156;5.382;2023-07-24T08:24:07;4.03;;;2.22;;
26042;SDS011;13818;52.156;5.382;2023-07-24T08:26:44;6.70;;;2.63;;
26042;SDS011;13818;52.156;5.382;2023-07-24T08:29:12;5.38;;;2.60;;
26042;SDS011;13818;52.156;5.382;2023-07-24T08:31:39;4.10;;;2.03;;
26042;SDS011;13818;52.156;5.382;2023-07-24T08:34:09;5.95;;;2.75;;
26042;SDS011;13818;52.156;5.382;2023-07-24T08:36:36;4.55;;;2.40;;
26042;SDS011;13818;52.156;5.382;2023-07-24T08:39:03;4.25;;;2.70;;
26042;SDS011;13818;52.156;5.382;2023-07-24T08:41:32;4.72;;;2.60;;
26042;SDS011;13818;52.156;5.382;2023-07-24T08:44:08;6.53;;;2.45;;
26042;SDS011;13818;52.156;5.382;2023-07-24T08:46:38;5.10;;;2.17;;
26042;SDS011;13818;52.156;5.382;2023-07-24T08:49:06;5.03;;;2.00;;
26042;SDS011;13818;52.156;5.382;2023-07-24T08:51:40;4.28;;;2.22;;
26042;SDS011;13818;52.156;5.382;2023-07-24T08:54:08;6.50;;;2.45;;
26042;SDS011;13818;52.156;5.382;2023-07-24T08:56:39;5.10;;;2.70;;
26042;SDS011;13818;52.156;5.382;2023-07-24T08:59:14;4.35;;;2.05;;
26042;SDS011;13818;52.156;5.382;2023-07-24T09:01:43;5.25;;;2.33;;
26042;SDS011;13818;52.156;5.382;2023-07-24T09:04:11;6.30;;;2.30;;
26042;SDS011;13818;52.156;5.382;2023-07-24T09:06:39;5.18;;;2.67;;
26042;SDS011;13818;52.156;5.382;2023-07-24T09:09:12;6.05;;;2.33;;
26042;SDS011;13818;52.156;5.382;2023-07-24T09:11:56;4.97;;;2.08;;
26042;SDS011;13818;52.156;5.382;2023-07-24T09:14:25;3.85;;;2.30;;
26042;SDS011;13818;52.156;5.382;2023-07-24T09:19:44;7.78;;;2.65;;
26042;SDS011;13818;52.156;5.382;2023-07-24T09:22:12;4.65;;;2.60;;
26042;SDS011;13818;52.156;5.382;2023-07-24T09:24:49;3.85;;;2.42;;
26042;SDS011;13818;52.156;5.382;2023-07-24T09:27:17;8.88;;;2.70;;
26042;SDS011;13818;52.156;5.382;2023-07-24T09:29:49;2.78;;;1.98;;
26042;SDS011;13818;52.156;5.382;2023-07-24T09:32:19;6.15;;;2.45;;
26042;SDS011;13818;52.156;5.382;2023-07-24T09:34:57;7.03;;;2.38;;
26042;SDS011;13818;52.156;5.382;2023-07-24T09:37:27;3.95;;;2.28;;
26042;SDS011;13818;52.156;5.382;2023-07-24T09:40:08;17.58;;;8.77;;
26042;SDS011;13818;52.156;5.382;2023-07-24T09:42:39;8.25;;;2.80;;
26042;SDS011;13818;52.156;5.382;2023-07-24T09:45:12;5.70;;;2.78;;
26042;SDS011;13818;52.156;5.382;2023-07-24T09:47:39;4.47;;;2.67;;
26042;SDS011;13818;52.156;5.382;2023-07-24T09:50:07;7.22;;;3.10;;
26042;SDS011;13818;52.156;5.382;2023-07-24T09:55:04;5.22;;;2.65;;
26042;SDS011;13818;52.156;5.382;2023-07-24T09:57:39;5.20;;;2.90;;
26042;SDS011;13818;52.156;5.382;2023-07-24T10:00:08;5.90;;;3.10;;
26042;SDS011;13818;52.156;5.382;2023-07-24T10:02:38;5.43;;;2.60;;
26042;SDS011;13818;52.156;5.382;2023-07-24T10:05:08;6.07;;;3.50;;
26042;SDS011;13818;52.156;5.382;2023-07-24T10:07:37;4.43;;;2.75;;
26042;SDS011;13818;52.156;5.382;2023-07-24T10:10:10;6.38;;;3.00;;
26042;SDS011;13818;52.156;5.382;2023-07-24T10:12:37;5.72;;;2.53;;
26042;SDS011;13818;52.156;5.382;2023-07-24T10:15:05;4.45;;;2.78;;
26042;SDS011;13818;52.156;5.382;2023-07-24T10:17:39;5.07;;;2.90;;
26042;SDS011;13818;52.156;5.382;2023-07-24T10:20:16;5.20;;;2.70;;
26042;SDS011;13818;52.156;5.382;2023-07-24T10:22:43;6.68;;;4.35;;
26042;SDS011;13818;52.156;5.382;2023-07-24T10:25:11;7.53;;;4.18;;
26042;SDS011;13818;52.156;5.382;2023-07-24T10:27:39;4.38;;;1.98;;
26042;SDS011;13818;52.156;5.382;2023-07-24T10:30:10;6.32;;;3.20;;
26042;SDS011;13818;52.156;5.382;2023-07-24T10:32:46;4.70;;;2.53;;
26042;SDS011;13818;52.156;5.382;2023-07-24T10:35:15;5.68;;;2.65;;
26042;SDS011;13818;52.156;5.382;2023-07-24T10:37:46;4.00;;;2.13;;
26042;SDS011;13818;52.156;5.382;2023-07-24T10:40:21;6.45;;;2.25;;
26042;SDS011;13818;52.156;5.382;2023-07-24T10:42:58;5.38;;;2.55;;
26042;SDS011;13818;52.156;5.382;2023-07-24T10:45:37;5.47;;;2.58;;
26042;SDS011;13818;52.156;5.382;2023-07-24T10:48:07;5.32;;;2.55;;
26042;SDS011;13818;52.156;5.382;2023-07-24T10:50:38;4.78;;;2.53;;
26042;SDS011;13818;52.156;5.382;2023-07-24T10:53:19;4.55;;;2.63;;
26042;SDS011;13818;52.156;5.382;2023-07-24T10:55:49;6.10;;;3.28;;
26042;SDS011;13818;52.156;5.382;2023-07-24T10:58:20;9.07;;;3.90;;
26042;SDS011;13818;52.156;5.382;2023-07-24T11:00:51;3.47;;;2.30;;
26042;SDS011;13818;52.156;5.382;2023-07-24T11:03:28;4.97;;;2.58;;
26042;SDS011;13818;52.156;5.382;2023-07-24T11:06:00;5.22;;;2.47;;
26042;SDS011;13818;52.156;5.382;2023-07-24T11:08:29;4.75;;;2.67;;
26042;SDS011;13818;52.156;5.382;2023-07-24T11:10:58;5.13;;;3.22;;
26042;SDS011;13818;52.156;5.382;2023-07-24T11:15:54;4.95;;;2.10;;
26042;SDS011;13818;52.156;5.382;2023-07-24T11:18:22;4.80;;;1.88;;
26042;SDS011;13818;52.156;5.382;2023-07-24T11:20:53;6.10;;;2.63;;
26042;SDS011;13818;52.156;5.382;2023-07-24T11:23:21;4.28;;;2.25;;
26042;SDS011;13818;52.156;5.382;2023-07-24T11:25:49;4.38;;;2.90;;
26042;SDS011;13818;52.156;5.382;2023-07-24T11:28:19;6.18;;;3.80;;
26042;SDS011;13818;52.156;5.382;2023-07-24T11:30:49;4.88;;;2.75;;
26042;SDS011;13818;52.156;5.382;2023-07-24T11:33:21;6.35;;;2.65;;
26042;SDS011;13818;52.156;5.382;2023-07-24T11:35:49;5.60;;;2.35;;
26042;SDS011;13818;52.156;5.382;2023-07-24T11:38:20;7.07;;;2.65;;
26042;SDS011;13818;52.156;5.382;2023-07-24T11:40:50;4.97;;;2.30;;
26042;SDS011;13818;52.156;5.382;2023-07-24T11:43:28;4.72;;;2.53;;
26042;SDS011;13818;52.156;5.382;2023-07-24T11:45:58;7.28;;;3.08;;
26042;SDS011;13818;52.156;5.382;2023-07-24T11:48:33;5.10;;;3.08;;
26042;SDS011;13818;52.156;5.382;2023-07-24T11:51:08;5.85;;;2.70;;
26042;SDS011;13818;52.156;5.382;2023-07-24T11:53:46;5.15;;;2.20;;
26042;SDS011;13818;52.156;5.382;2023-07-24T11:56:15;5.18;;;2.90;;
26042;SDS011;13818;52.156;5.382;2023-07-24T11:58:47;5.05;;;2.72;;
26042;SDS011;13818;52.156;5.382;2023-07-24T12:03:44;7.00;;;2.72;;
26042;SDS011;13818;52.156;5.382;2023-07-24T12:06:16;5.53;;;2.95;;
26042;SDS011;13818;52.156;5.382;2023-07-24T12:08:46;6.35;;;2.97;;
26042;SDS011;13818;52.156;5.382;2023-07-24T12:11:27;6.65;;;3.08;;
26042;SDS011;13818;52.156;5.382;2023-07-24T12:13:56;3.55;;;2.38;;
26042;SDS011;13818;52.156;5.382;2023-07-24T12:16:29;5.78;;;2.55;;
26042;SDS011;13818;52.156;5.382;2023-07-24T12:18:57;5.60;;;2.42;;
26042;SDS011;13818;52.156;5.382;2023-07-24T12:21:27;8.63;;;4.63;;
26042;SDS011;13818;52.156;5.382;2023-07-24T12:23:59;6.07;;;3.08;;
26042;SDS011;13818;52.156;5.382;2023-07-24T12:26:30;3.45;;;2.47;;
26042;SDS011;13818;52.156;5.382;2023-07-24T12:29:01;7.45;;;3.80;;
26042;SDS011;13818;52.156;5.382;2023-07-24T12:31:30;4.45;;;2.35;;
26042;SDS011;13818;52.156;5.382;2023-07-24T12:34:00;5.38;;;2.63;;
26042;SDS011;13818;52.156;5.382;2023-07-24T12:36:29;4.55;;;2.45;;
26042;SDS011;13818;52.156;5.382;2023-07-24T12:38:56;5.70;;;2.47;;
26042;SDS011;13818;52.156;5.382;2023-07-24T12:41:24;3.92;;;2.67;;
26042;SDS011;13818;52.156;5.382;2023-07-24T12:43:58;3.65;;;2.38;;
26042;SDS011;13818;52.156;5.382;2023-07-24T12:46:26;6.60;;;2.45;;
26042;SDS011;13818;52.156;5.382;2023-07-24T12:48:59;4.50;;;1.55;;
26042;SDS011;13818;52.156;5.382;2023-07-24T12:51:29;6.35;;;2.28;;
26042;SDS011;13818;52.156;5.382;2023-07-24T12:53:57;3.92;;;2.33;;
26042;SDS011;13818;52.156;5.382;2023-07-24T12:56:34;2.78;;;1.60;;
26042;SDS011;13818;52.156;5.382;2023-07-24T12:59:06;1.60;;;1.13;;
26042;SDS011;13818;52.156;5.382;2023-07-24T13:01:39;2.10;;;1.17;;
26042;SDS011;13818;52.156;5.382;2023-07-24T13:04:15;2.30;;;1.35;;
26042;SDS011;13818;52.156;5.382;2023-07-24T13:06:42;3.47;;;1.50;;
26042;SDS011;13818;52.156;5.382;2023-07-24T13:09:11;3.00;;;1.42;;
26042;SDS011;13818;52.156;5.382;2023-07-24T13:11:40;3.25;;;1.60;;
26042;SDS011;13818;52.156;5.382;2023-07-24T13:14:24;4.80;;;2.42;;
26042;SDS011;13818;52.156;5.382;2023-07-24T13:16:54;5.88;;;2.20;;
26042;SDS011;13818;52.156;5.382;2023-07-24T13:19:23;5.25;;;2.60;;
26042;SDS011;13818;52.156;5.382;2023-07-24T13:21:56;4.70;;;2.90;;
26042;SDS011;13818;52.156;5.382;2023-07-24T13:24:23;4.13;;;2.58;;
26042;SDS011;13818;52.156;5.382;2023-07-24T13:26:52;6.22;;;2.80;;
26042;SDS011;13818;52.156;5.382;2023-07-24T13:29:19;7.70;;;4.45;;
26042;SDS011;13818;52.156;5.382;2023-07-24T13:31:47;6.25;;;3.15;;
26042;SDS011;13818;52.156;5.382;2023-07-24T13:34:20;7.13;;;3.53;;
26042;SDS011;13818;52.156;5.382;2023-07-24T13:36:48;7.53;;;3.30;;
26042;SDS011;13818;52.156;5.382;2023-07-24T13:39:17;7.15;;;3.83;;
26042;SDS011;13818;52.156;5.382;2023-07-24T13:41:44;8.88;;;4.15;;
26042;SDS011;13818;52.156;5.382;2023-07-24T13:44:17;4.88;;;3.67;;
26042;SDS011;13818;52.156;5.382;2023-07-24T13:46:56;6.25;;;3.90;;
26042;SDS011;13818;52.156;5.382;2023-07-24T13:49:23;7.65;;;4.40;;
26042;SDS011;13818;52.156;5.382;2023-07-24T13:51:57;7.07;;;3.63;;
26042;SDS011;13818;52.156;5.382;2023-07-24T13:54:24;6.65;;;3.72;;
26042;SDS011;13818;52.156;5.382;2023-07-24T13:56:55;5.93;;;3.80;;
26042;SDS011;13818;52.156;5.382;2023-07-24T13:59:27;6.00;;;3.20;;
26042;SDS011;13818;52.156;5.382;2023-07-24T14:01:57;7.15;;;3.78;;
26042;SDS011;13818;52.156;5.382;2023-07-24T14:04:24;8.70;;;3.60;;
26042;SDS011;13818;52.156;5.382;2023-07-24T14:07:02;9.02;;;4.68;;
26042;SDS011;13818;52.156;5.382;2023-07-24T14:09:31;7.03;;;4.25;;
26042;SDS011;13818;52.156;5.382;2023-07-24T14:12:01;5.60;;;3.58;;
26042;SDS011;13818;52.156;5.382;2023-07-24T14:14:32;5.82;;;3.38;;
26042;SDS011;13818;52.156;5.382;2023-07-24T14:16:59;4.07;;;2.67;;
26042;SDS011;13818;52.156;5.382;2023-07-24T14:19:32;3.53;;;2.17;;
26042;SDS011;13818;52.156;5.382;2023-07-24T14:22:01;4.35;;;1.20;;
26042;SDS011;13818;52.156;5.382;2023-07-24T14:24:31;1.85;;;1.40;;
26042;SDS011;13818;52.156;5.382;2023-07-24T14:27:01;2.28;;;1.42;;
26042;SDS011;13818;52.156;5.382;2023-07-24T14:29:28;4.65;;;2.53;;
26042;SDS011;13818;52.156;5.382;2023-07-24T14:32:07;5.20;;;1.30;;
26042;SDS011;13818;52.156;5.382;2023-07-24T14:34:36;4.30;;;1.40;;
26042;SDS011;13818;52.156;5.382;2023-07-24T14:37:08;2.28;;;1.42;;
26042;SDS011;13818;52.156;5.382;2023-07-24T14:39:43;2.10;;;1.35;;
26042;SDS011;13818;52.156;5.382;2023-07-24T14:42:15;1.88;;;1.17;;
26042;SDS011;13818;52.156;5.382;2023-07-24T14:44:47;2.42;;;1.17;;
26042;SDS011;13818;52.156;5.382;2023-07-24T14:47:15;3.65;;;1.90;;
26042;SDS011;13818;52.156;5.382;2023-07-24T14:49:43;1.63;;;1.02;;
26042;SDS011;13818;52.156;5.382;2023-07-24T14:52:12;3.88;;;1.25;;
26042;SDS011;13818;52.156;5.382;2023-07-24T14:54:39;1.77;;;1.17;;
26042;SDS011;13818;52.156;5.382;2023-07-24T14:57:10;3.40;;;1.40;;
26042;SDS011;13818;52.156;5.382;2023-07-24T14:59:40;2.08;;;1.05;;
26042;SDS011;13818;52.156;5.382;2023-07-24T15:02:13;2.30;;;0.88;;
26042;SDS011;13818;52.156;5.382;2023-07-24T15:04:46;2.47;;;1.08;;
26042;SDS011;13818;52.156;5.382;2023-07-24T15:07:17;1.83;;;0.82;;
26042;SDS011;13818;52.156;5.382;2023-07-24T15:09:49;2.30;;;0.85;;
26042;SDS011;13818;52.156;5.382;2023-07-24T15:12:18;2.25;;;1.20;;
26042;SDS011;13818;52.156;5.382;2023-07-24T15:14:46;1.98;;;0.90;;
26042;SDS011;13818;52.156;5.382;2023-07-24T15:17:14;6.05;;;1.05;;
26042;SDS011;13818;52.156;5.382;2023-07-24T15:19:50;1.30;;;0.90;;
26042;SDS011;13818;52.156;5.382;2023-07-24T15:22:29;4.35;;;0.80;;
26042;SDS011;13818;52.156;5.382;2023-07-24T15:25:05;1.63;;;0.68;;
26042;SDS011;13818;52.156;5.382;2023-07-24T15:27:39;3.80;;;0.70;;
26042;SDS011;13818;52.156;5.382;2023-07-24T15:30:08;1.23;;;0.70;;